Amber Beverly — VRHK5 — position and weather

sailwx.info

Track history (hours):
 
Tides and Currents Weather Stations Pressure Air Temp Water Temp Dewpoint Dewpoint Depression Visibility Wind Speed Wind Dir Waves Ship Positions

Amber Beverly

Last reported at 2015-Mar-23 19:24 UTC. Time now 2015-Mar-28 14:19 UTC.
Position N 08°58' E 123°53'.

Length 190 m; draft 6.7 m.

Type: Cargo ship. MMSI: 477317100.

Date/timePositionNaut miles runAvg speedWind from/ knotsBaromVisibWave heightAir tempDewpointWater temp
2015-Mar-23 19:24N 08°58' E 123°53'1213.0
2015-Mar-23 18:31N 08°58' E 123°41'1313.1
2015-Mar-23 17:33N 08°55' E 123°29'1413.8
2015-Mar-23 16:33N 08°53' E 123°15'1312.7
2015-Mar-23 15:33N 08°52' E 123°02'1212.5
2015-Mar-23 14:33N 08°50' E 122°50'  
2015-Mar-19 17:33N 01°16' E 104°11'1212.3
2015-Mar-19 16:33N 01°14' E 103°59'1010.0
2015-Mar-19 15:32N 01°12' E 103°49'3 2.6
2015-Mar-19 14:27N 01°14' E 103°48'0 0.0
2015-Mar-19 13:30N 01°14' E 103°48'0 0.0
2015-Mar-19 12:27N 01°14' E 103°48'0 0.0
2015-Mar-19 11:33N 01°14' E 103°48'0 0.1
2015-Mar-19 10:12N 01°14' E 103°49'0 0.1
2015-Mar-19 09:27N 01°14' E 103°49'0 0.0
2015-Mar-19 08:33N 01°14' E 103°49'0 0.0
2015-Mar-19 07:09N 01°14' E 103°49'0 0.0
2015-Mar-19 06:33N 01°14' E 103°49'0 0.1
2015-Mar-19 05:33N 01°14' E 103°49'0 0.0
2015-Mar-19 04:27N 01°14' E 103°49'0 0.1
2015-Mar-19 03:03N 01°14' E 103°49'0 0.3
2015-Mar-19 02:32N 01°14' E 103°48'2 1.5
2015-Mar-19 01:32N 01°14' E 103°47'7 6.2
2015-Mar-19 00:21N 01°15' E 103°40'  
2015-Mar-14 00:32N 01°10' E 103°47'9 9.5
2015-Mar-13 23:33N 01°14' E 103°56'10 9.9
2015-Mar-13 22:33N 01°16' E 104°06'1010.1
2015-Mar-13 21:32N 01°18' E 104°16'  
Track history (hours):
 
Tides and Currents Weather Stations Pressure Air Temp Water Temp Dewpoint Dewpoint Depression Visibility Wind Speed Wind Dir Waves Ship Positions

Amber Beverly

Last reported at 2015-Mar-23 19:24 UTC. Time now 2015-Mar-28 14:19 UTC.
Position N 08°58' E 123°53'.

Length 190 m; draft 6.7 m.

Type: Cargo ship. MMSI: 477317100.

Date/timePositionNaut miles runAvg speedWind from/ knotsBaromVisibWave heightAir tempDewpointWater temp
2015-Mar-23 19:24N 08°58' E 123°53'1213.0
2015-Mar-23 18:31N 08°58' E 123°41'1313.1
2015-Mar-23 17:33N 08°55' E 123°29'1413.8
2015-Mar-23 16:33N 08°53' E 123°15'1312.7
2015-Mar-23 15:33N 08°52' E 123°02'1212.5
2015-Mar-23 14:33N 08°50' E 122°50'  
2015-Mar-19 17:33N 01°16' E 104°11'1212.3
2015-Mar-19 16:33N 01°14' E 103°59'1010.0
2015-Mar-19 15:32N 01°12' E 103°49'3 2.6
2015-Mar-19 14:27N 01°14' E 103°48'0 0.0
2015-Mar-19 13:30N 01°14' E 103°48'0 0.0
2015-Mar-19 12:27N 01°14' E 103°48'0 0.0
2015-Mar-19 11:33N 01°14' E 103°48'0 0.1
2015-Mar-19 10:12N 01°14' E 103°49'0 0.1
2015-Mar-19 09:27N 01°14' E 103°49'0 0.0
2015-Mar-19 08:33N 01°14' E 103°49'0 0.0
2015-Mar-19 07:09N 01°14' E 103°49'0 0.0
2015-Mar-19 06:33N 01°14' E 103°49'0 0.1
2015-Mar-19 05:33N 01°14' E 103°49'0 0.0
2015-Mar-19 04:27N 01°14' E 103°49'0 0.1
2015-Mar-19 03:03N 01°14' E 103°49'0 0.3
2015-Mar-19 02:32N 01°14' E 103°48'2 1.5
2015-Mar-19 01:32N 01°14' E 103°47'7 6.2
2015-Mar-19 00:21N 01°15' E 103°40'  
2015-Mar-14 00:32N 01°10' E 103°47'9 9.5
2015-Mar-13 23:33N 01°14' E 103°56'10 9.9
2015-Mar-13 22:33N 01°16' E 104°06'1010.1
2015-Mar-13 21:32N 01°18' E 104°16'  

Dump ship's entire track history